Time;durP1;ratioP1;P1;durP2;ratioP2;P2;SDS_P1;SDS_P2;PMS_P1;PMS_P2;Temp;Humidity;BMP_temperature;BMP_pressure;BME280_temperature;BME280_humidity;BME280_pressure;Samples;Min_cycle;Max_cycle;Signal;HPM_P1;HPM_P2
2022/07/15 00:00:13;;;;;;;25.90;23.70;;;;;;;15.87;nan;98808.44;2075453;28;20435;-74
2022/07/15 00:01:16;;;;;;;25.73;23.73;;;;;;;15.87;nan;98809.22;2075351;28;20601;-74
2022/07/15 00:02:21;;;;;;;26.10;23.90;;;;;;;15.85;nan;98799.91;2074265;28;20439;-75
2022/07/15 00:03:21;;;;;;;25.23;23.17;;;;;;;15.86;nan;98804.94;2066816;28;20502;-74
2022/07/15 00:04:23;;;;;;;24.87;22.97;;;;;;;15.85;nan;98800.69;2074704;28;20443;-74
2022/07/15 00:05:24;;;;;;;25.03;23.03;;;;;;;15.85;nan;98814.16;2074933;28;20200;-74
2022/07/15 00:06:26;;;;;;;26.43;24.20;;;;;;;15.86;nan;98810.34;2074901;28;20969;-74
2022/07/15 00:07:27;;;;;;;27.17;24.30;;;;;;;15.88;nan;98818.06;2074605;28;20461;-75
2022/07/15 00:08:29;;;;;;;26.20;24.10;;;;;;;15.85;nan;98814.16;2074724;28;20424;-74
2022/07/15 00:10:52;;;;;;;25.07;22.87;;;;;;;15.88;nan;98820.75;2075331;28;20407;-74
2022/07/15 00:11:52;;;;;;;24.83;22.83;;;;;;;15.85;nan;98810.66;2075265;28;20952;-74
2022/07/15 00:12:56;;;;;;;24.97;22.73;;;;;;;15.84;nan;98815.28;2075237;28;20869;-74
2022/07/15 00:13:57;;;;;;;25.40;23.30;;;;;;;15.84;nan;98820.66;2075327;28;20188;-74
2022/07/15 00:15:00;;;;;;;24.23;22.43;;;;;;;15.86;nan;98837.22;2074658;28;20533;-74
2022/07/15 00:16:03;;;;;;;24.20;22.30;;;;;;;15.82;nan;98839.81;2074734;28;20949;-75
2022/07/15 00:17:06;;;;;;;24.23;22.37;;;;;;;15.85;nan;98848.34;2075140;28;21004;-74
2022/07/15 00:18:07;;;;;;;23.30;21.40;;;;;;;15.88;nan;98858.41;2075392;28;20431;-74
2022/07/15 00:19:08;;;;;;;23.83;21.83;;;;;;;15.86;nan;98850.69;2074521;28;20459;-74
2022/07/15 00:20:10;;;;;;;24.33;22.33;;;;;;;15.88;nan;98848.44;2074626;28;20427;-74
2022/07/15 00:21:11;;;;;;;23.70;21.70;;;;;;;15.89;nan;98843.84;2073781;28;20617;-75
2022/07/15 00:22:13;;;;;;;23.77;21.77;;;;;;;15.89;nan;98838.47;2074666;28;20684;-74
2022/07/15 00:23:15;;;;;;;23.67;21.87;;;;;;;15.86;nan;98823.78;2075256;28;20192;-74
2022/07/15 00:24:16;;;;;;;24.03;21.97;;;;;;;15.88;nan;98818.06;2075163;28;20522;-74
2022/07/15 00:25:18;;;;;;;23.93;22.03;;;;;;;15.87;nan;98819.19;2075304;28;20435;-74
2022/07/15 00:26:18;;;;;;;25.07;22.87;;;;;;;15.83;nan;98814.50;2075145;28;20199;-74
2022/07/15 00:27:20;;;;;;;24.13;22.00;;;;;;;15.83;nan;98814.50;2074539;28;20442;-74
2022/07/15 00:28:22;;;;;;;23.93;21.97;;;;;;;15.82;nan;98821.00;2074624;28;20275;-74
2022/07/15 00:29:25;;;;;;;22.97;21.17;;;;;;;15.81;nan;98818.63;2075118;28;20506;-74
2022/07/15 00:30:32;;;;;;;22.83;21.07;;;;;;;15.79;nan;98824.34;2082866;28;21058;-74
2022/07/15 00:31:35;;;;;;;23.03;21.27;;;;;;;15.81;nan;98818.63;2081787;28;20449;-74
2022/07/15 00:32:36;;;;;;;22.33;20.53;;;;;;;15.79;nan;98824.34;2074524;28;20435;-74
2022/07/15 00:33:37;;;;;;;23.53;21.47;;;;;;;15.77;nan;98831.19;2075039;28;20553;-74
2022/07/15 00:34:38;;;;;;;22.53;20.80;;;;;;;15.74;nan;98837.25;2075270;28;20199;-74
2022/07/15 00:35:42;;;;;;;23.17;21.27;;;;;;;15.76;nan;98841.16;2075352;28;20435;-74
2022/07/15 00:36:44;;;;;;;22.40;20.60;;;;;;;15.77;nan;98842.72;2074891;28;20227;-74
2022/07/15 00:37:46;;;;;;;22.77;20.87;;;;;;;15.71;nan;98841.38;2074371;28;20455;-74
2022/07/15 00:38:46;;;;;;;22.47;20.67;;;;;;;15.74;nan;98839.94;2074458;28;20439;-74
2022/07/15 00:39:48;;;;;;;23.40;21.37;;;;;;;15.71;nan;98838.69;2074382;28;20453;-74
2022/07/15 00:40:49;;;;;;;22.93;20.83;;;;;;;15.70;nan;98837.09;2066389;28;20663;-74
2022/07/15 00:41:52;;;;;;;23.20;21.30;;;;;;;15.67;nan;98827.03;2074473;28;20439;-74
2022/07/15 00:42:55;;;;;;;23.37;21.40;;;;;;;15.69;nan;98830.16;2082239;28;20439;-74
2022/07/15 00:43:57;;;;;;;23.57;21.47;;;;;;;15.68;nan;98827.81;2074625;28;20447;-74
2022/07/15 00:44:58;;;;;;;23.33;21.27;;;;;;;15.66;nan;98828.16;2074466;28;20482;-74
2022/07/15 00:46:00;;;;;;;24.03;21.93;;;;;;;15.67;nan;98827.03;2082646;28;20434;-74
2022/07/15 00:47:02;;;;;;;24.03;21.83;;;;;;;15.66;nan;98824.69;2075182;28;20196;-74
2022/07/15 00:48:04;;;;;;;24.17;22.20;;;;;;;15.65;nan;98821.22;2074326;28;20826;-74
2022/07/15 00:49:07;;;;;;;24.43;22.27;;;;;;;15.63;nan;98823.44;2066341;28;20886;-74
2022/07/15 00:50:10;;;;;;;24.57;22.50;;;;;;;15.65;nan;98820.44;2074416;28;20446;-74
2022/07/15 00:51:13;;;;;;;23.63;21.63;;;;;;;15.64;nan;98819.63;2074157;28;20462;-74
2022/07/15 00:52:16;;;;;;;23.33;21.53;;;;;;;15.65;nan;98813.13;2074484;28;20510;-74
2022/07/15 00:53:19;;;;;;;24.00;22.00;;;;;;;15.63;nan;98812.66;2074209;28;20482;-74
2022/07/15 00:54:24;;;;;;;23.80;21.67;;;;;;;15.63;nan;98815.34;2074727;28;20523;-74
2022/07/15 00:55:28;;;;;;;23.17;21.27;;;;;;;15.65;nan;98815.81;2083295;28;20465;-75
2022/07/15 00:56:32;;;;;;;24.07;21.97;;;;;;;15.64;nan;98816.16;2074219;28;20489;-74
2022/07/15 00:57:35;;;;;;;23.97;22.00;;;;;;;15.64;nan;98816.94;2075323;28;20438;-74
2022/07/15 00:58:38;;;;;;;23.60;21.50;;;;;;;15.63;nan;98820.75;2073783;28;20442;-74
2022/07/15 00:59:39;;;;;;;22.67;20.63;;;;;;;15.66;nan;98828.16;2073961;28;20491;-75
2022/07/15 01:00:41;;;;;;;22.73;20.77;;;;;;;15.63;nan;98820.75;2074644;28;20934;-75
2022/07/15 01:01:43;;;;;;;23.93;21.77;;;;;;;15.64;nan;98826.94;2074322;28;20191;-75
2022/07/15 01:02:50;;;;;;;23.30;21.40;;;;;;;15.63;nan;98818.03;2074439;28;20447;-74
2022/07/15 01:03:51;;;;;;;23.37;21.27;;;;;;;15.61;nan;98819.50;2066303;28;20452;-74
2022/07/15 01:04:54;;;;;;;22.63;20.83;;;;;;;15.61;nan;98819.50;2075213;28;20466;-75
2022/07/15 01:05:56;;;;;;;22.47;20.60;;;;;;;15.60;nan;98815.22;2081854;28;20427;-74
2022/07/15 01:06:56;;;;;;;22.67;20.67;;;;;;;15.60;nan;98817.91;2075173;28;20424;-75
2022/07/15 01:07:58;;;;;;;23.07;21.17;;;;;;;15.59;nan;98819.81;2074525;28;20493;-74
2022/07/15 01:08:59;;;;;;;22.90;21.00;;;;;;;15.60;nan;98823.28;2065776;28;20217;-74
2022/07/15 01:10:01;;;;;;;23.43;21.37;;;;;;;15.59;nan;98817.13;2074553;28;20467;-75
2022/07/15 01:11:08;;;;;;;22.60;20.90;;;;;;;15.57;nan;98819.38;2074523;28;20965;-75
2022/07/15 01:12:12;;;;;;;23.20;21.20;;;;;;;15.56;nan;98815.13;2066447;28;20455;-74
2022/07/15 01:13:14;;;;;;;23.30;21.17;;;;;;;15.59;nan;98819.81;2066370;28;20543;-74
2022/07/15 01:14:15;;;;;;;23.13;21.30;;;;;;;15.59;nan;98827.09;2066034;28;20857;-75
2022/07/15 01:15:16;;;;;;;23.23;21.17;;;;;;;15.57;nan;98822.06;2074132;28;20439;-75
2022/07/15 01:16:17;;;;;;;22.43;20.63;;;;;;;15.56;nan;98815.13;2082270;28;20202;-74
2022/07/15 01:17:19;;;;;;;23.30;21.40;;;;;;;15.56;nan;98815.13;2074095;28;20446;-74
2022/07/15 01:18:23;;;;;;;24.20;21.90;;;;;;;15.54;nan;98817.34;2074122;28;20648;-74
2022/07/15 01:19:27;;;;;;;23.80;21.90;;;;;;;15.53;nan;98815.78;2082239;28;20462;-74
2022/07/15 01:20:28;;;;;;;22.83;21.00;;;;;;;15.54;nan;98820.03;2082065;28;20517;-75
2022/07/15 01:21:33;;;;;;;23.17;21.27;;;;;;;15.52;nan;98819.56;2073642;28;20466;-74
2022/07/15 01:22:35;;;;;;;23.60;21.60;;;;;;;15.53;nan;98818.47;2066496;28;20528;-74
2022/07/15 01:23:40;;;;;;;22.83;20.90;;;;;;;15.52;nan;98823.06;2074339;28;20964;-74
2022/07/15 01:24:51;;;;;;;23.00;21.10;;;;;;;15.51;nan;98820.69;2074076;28;20595;-75
2022/07/15 01:25:56;;;;;;;23.13;21.33;;;;;;;15.49;nan;98821.03;2066728;28;20483;-74
2022/07/15 01:26:59;;;;;;;23.07;21.17;;;;;;;15.49;nan;98820.25;2074132;28;20435;-74
2022/07/15 01:28:00;;;;;;;23.63;21.53;;;;;;;15.49;nan;98825.63;2074937;28;20439;-75
2022/07/15 01:29:03;;;;;;;23.07;21.30;;;;;;;15.47;nan;98819.81;2074038;28;20447;-74
2022/07/15 01:30:05;;;;;;;23.77;21.67;;;;;;;15.47;nan;98817.13;2065917;28;20448;-75
2022/07/15 01:31:07;;;;;;;23.27;21.20;;;;;;;15.47;nan;98817.13;2066041;28;20448;-75
2022/07/15 01:32:09;;;;;;;23.70;21.60;;;;;;;15.45;nan;98819.34;2074364;28;20458;-74
2022/07/15 01:33:12;;;;;;;22.93;21.20;;;;;;;15.44;nan;98823.94;2074001;28;20977;-74
2022/07/15 01:34:12;;;;;;;24.23;22.03;;;;;;;15.45;nan;98817.44;2074339;28;20193;-74
2022/07/15 01:35:15;;;;;;;23.30;21.30;;;;;;;15.48;nan;98821.38;2073943;28;20462;-75
2022/07/15 01:36:18;;;;;;;23.40;21.23;;;;;;;15.47;nan;98815.22;2074206;28;20467;-75
2022/07/15 01:37:28;;;;;;;22.93;21.10;;;;;;;15.48;nan;98821.38;2074262;28;20439;-74
2022/07/15 01:38:32;;;;;;;23.67;21.73;;;;;;;15.48;nan;98818.69;2066418;28;20440;-74
2022/07/15 01:39:37;;;;;;;24.23;22.13;;;;;;;15.48;nan;98816.78;2074577;28;20885;-74
2022/07/15 01:40:38;;;;;;;23.53;21.63;;;;;;;15.48;nan;98816.78;2073928;28;20447;-74
2022/07/15 01:41:41;;;;;;;22.90;21.00;;;;;;;15.49;nan;98821.03;2074779;28;20498;-74
2022/07/15 01:42:46;;;;;;;22.73;20.93;;;;;;;15.50;nan;98813.75;2081751;28;20494;-74
2022/07/15 01:43:50;;;;;;;23.00;21.13;;;;;;;15.49;nan;98812.19;2073836;28;20447;-74
2022/07/15 01:44:50;;;;;;;22.63;20.80;;;;;;;15.53;nan;98815.78;2074386;28;20454;-74
2022/07/15 01:45:54;;;;;;;23.00;21.20;;;;;;;15.53;nan;98813.09;2074176;28;21009;-74
2022/07/15 01:47:05;;;;;;;23.73;21.53;;;;;;;15.53;nan;98811.16;2076418;28;20208;-74
2022/07/15 01:49:21;;;;;;;22.33;20.53;;;;;;;15.54;nan;98806.56;2073825;28;20447;-75
2022/07/15 01:49:48;;;;;;;22.33;20.10;;;;;;;15.53;nan;98799.63;2075025;28;20438;-74
2022/07/15 01:51:15;;;;;;;22.70;20.73;;;;;;;15.55;nan;98808.19;2073994;28;20451;-75
2022/07/15 01:52:17;;;;;;;22.60;20.60;;;;;;;15.53;nan;98810.38;2074355;28;20439;-74
2022/07/15 01:53:22;;;;;;;22.73;21.03;;;;;;;15.55;nan;98806.28;2073991;28;20958;-74
2022/07/15 01:54:25;;;;;;;22.07;20.37;;;;;;;15.55;nan;98805.47;2073826;28;20451;-74
2022/07/15 01:55:27;;;;;;;21.90;20.07;;;;;;;15.55;nan;98808.19;2066732;28;20448;-74
2022/07/15 01:56:29;;;;;;;21.13;19.40;;;;;;;15.56;nan;98809.75;2074053;28;20854;-74
2022/07/15 01:57:31;;;;;;;21.67;20.07;;;;;;;15.55;nan;98803.56;2073944;28;20451;-74
2022/07/15 01:58:32;;;;;;;22.77;20.70;;;;;;;15.56;nan;98809.75;2065574;28;20213;-74
2022/07/15 01:59:34;;;;;;;23.00;21.10;;;;;;;15.57;nan;98811.31;2066034;28;20785;-74
2022/07/15 02:00:36;;;;;;;22.67;20.87;;;;;;;15.57;nan;98811.31;2065781;28;20227;-74
2022/07/15 02:01:43;;;;;;;22.83;20.93;;;;;;;15.54;nan;98809.25;2066132;28;20884;-74
2022/07/15 02:02:46;;;;;;;22.77;20.97;;;;;;;15.56;nan;98809.75;2074956;28;20485;-74
2022/07/15 02:03:51;;;;;;;23.17;21.47;;;;;;;15.55;nan;98808.19;2073828;28;20486;-75
2022/07/15 02:04:52;;;;;;;23.03;21.17;;;;;;;15.54;nan;98817.34;2073862;28;20451;-74
2022/07/15 02:05:55;;;;;;;22.07;20.23;;;;;;;15.54;nan;98807.38;2073173;28;20502;-74
2022/07/15 02:06:59;;;;;;;21.43;19.83;;;;;;;15.52;nan;98819.56;2066146;28;20440;-74
2022/07/15 02:08:08;;;;;;;21.97;20.20;;;;;;;15.47;nan;98815.22;2066546;28;20444;-75
2022/07/15 02:09:10;;;;;;;21.37;19.87;;;;;;;15.48;nan;98813.31;2074111;28;20498;-75
2022/07/15 02:10:16;;;;;;;21.67;20.07;;;;;;;15.46;nan;98815.53;2073928;28;20431;-74
2022/07/15 02:11:20;;;;;;;21.50;19.80;;;;;;;15.42;nan;98820.03;2073388;28;20526;-74
2022/07/15 02:12:25;;;;;;;21.97;20.17;;;;;;;15.39;nan;98820.69;2073682;28;20439;-74
2022/07/15 02:13:28;;;;;;;21.13;19.43;;;;;;;15.40;nan;98816.88;2066078;28;20837;-75
2022/07/15 02:14:35;;;;;;;22.47;20.40;;;;;;;15.38;nan;98821.81;2066329;28;20440;-75
2022/07/15 02:15:39;;;;;;;20.90;19.30;;;;;;;15.37;nan;98814.84;2066262;28;20976;-74
2022/07/15 02:16:40;;;;;;;22.27;20.40;;;;;;;15.33;nan;98824.69;2073593;28;20461;-74
2022/07/15 02:17:46;;;;;;;21.37;19.77;;;;;;;15.30;nan;98820.00;2073788;28;20455;-74
2022/07/15 02:18:48;;;;;;;22.23;20.53;;;;;;;15.31;nan;98826.94;2065500;28;20440;-74
2022/07/15 02:19:49;;;;;;;21.40;19.40;;;;;;;15.31;nan;98824.25;2073848;28;20635;-74
2022/07/15 02:20:51;;;;;;;21.37;19.37;;;;;;;15.28;nan;98828.38;2073611;28;20526;-75
2022/07/15 02:21:54;;;;;;;21.60;19.80;;;;;;;15.25;nan;98827.16;2073363;28;20482;-74
2022/07/15 02:22:57;;;;;;;21.93;20.30;;;;;;;15.24;nan;98827.47;2073611;28;21015;-74
2022/07/15 02:23:58;;;;;;;23.00;20.57;;;;;;;15.25;nan;98831.75;2073688;28;20435;-74
2022/07/15 02:25:01;;;;;;;22.13;20.33;;;;;;;15.24;nan;98832.84;2073624;28;20444;-74
2022/07/15 02:26:04;;;;;;;22.63;20.83;;;;;;;15.22;nan;98838.56;2066132;28;20204;-74
2022/07/15 02:27:06;;;;;;;22.70;20.93;;;;;;;15.21;nan;98830.84;2073750;28;20428;-74
2022/07/15 02:28:07;;;;;;;22.53;20.83;;;;;;;15.21;nan;98836.22;2073574;28;20448;-74
2022/07/15 02:29:10;;;;;;;22.03;20.27;;;;;;;15.17;nan;98825.34;2073734;28;20456;-74
2022/07/15 02:30:12;;;;;;;21.63;20.03;;;;;;;15.17;nan;98822.66;2081886;28;20465;-74
2022/07/15 02:31:13;;;;;;;22.53;20.83;;;;;;;15.16;nan;98821.06;2073574;28;20518;-74
2022/07/15 02:32:15;;;;;;;22.50;20.50;;;;;;;15.14;nan;98826.00;2065653;28;20452;-74
2022/07/15 02:33:16;;;;;;;22.43;20.63;;;;;;;15.15;nan;98832.16;2065506;28;20975;-74
2022/07/15 02:34:20;;;;;;;23.20;21.20;;;;;;;15.13;nan;98832.50;2065366;28;20832;-74
2022/07/15 02:35:24;;;;;;;22.77;20.67;;;;;;;15.10;nan;98832.34;2074181;28;20231;-74
2022/07/15 02:36:27;;;;;;;22.27;20.50;;;;;;;15.13;nan;98837.88;2073039;28;20458;-74
2022/07/15 02:37:29;;;;;;;21.87;20.20;;;;;;;15.13;nan;98837.09;2073689;28;20658;-74
2022/07/15 02:38:31;;;;;;;22.37;20.67;;;;;;;15.12;nan;98841.69;2073575;28;20853;-74
2022/07/15 02:39:31;;;;;;;22.60;20.90;;;;;;;15.09;nan;98839.63;2065400;28;20204;-74
2022/07/15 02:40:34;;;;;;;22.63;20.70;;;;;;;15.10;nan;98841.19;2073511;28;20439;-74
2022/07/15 02:41:37;;;;;;;21.80;19.97;;;;;;;15.11;nan;98842.78;2081590;28;20191;-74
2022/07/15 02:42:47;;;;;;;22.00;20.13;;;;;;;15.13;nan;98843.25;2073497;28;20485;-74
2022/07/15 02:43:48;;;;;;;22.60;20.90;;;;;;;15.12;nan;98844.38;2073607;28;20450;-74
2022/07/15 02:44:49;;;;;;;22.77;20.97;;;;;;;15.10;nan;98835.81;2074138;28;20431;-74
2022/07/15 02:45:51;;;;;;;23.20;21.30;;;;;;;15.09;nan;98842.31;2073499;28;20541;-74
2022/07/15 02:46:52;;;;;;;24.13;21.80;;;;;;;15.10;nan;98843.09;2065491;28;20221;-74
2022/07/15 02:48:00;;;;;;;23.13;21.05;;;;;;;15.07;nan;98841.88;2074166;28;20184;-74
2022/07/15 02:49:09;;;;;;;22.52;20.63;;;;;;;15.09;nan;98844.22;2073454;28;20200;-74
2022/07/15 02:50:11;;;;;;;22.58;20.80;;;;;;;15.08;nan;98840.75;2066953;28;20252;-74
2022/07/15 02:51:13;;;;;;;23.53;21.37;;;;;;;15.08;nan;98842.66;2064950;28;20274;-74
2022/07/15 02:52:15;;;;;;;22.60;20.70;;;;;;;15.09;nan;98847.69;2065446;28;20475;-74
2022/07/15 02:53:25;;;;;;;24.23;22.03;;;;;;;15.08;nan;98856.09;2066120;28;20444;-74
2022/07/15 02:54:27;;;;;;;22.83;20.93;;;;;;;15.05;nan;98841.44;2073530;28;20448;-74
2022/07/15 02:55:28;;;;;;;22.45;20.40;;;;;;;15.03;nan;98845.53;2073531;28;20460;-74
2022/07/15 02:56:31;;;;;;;23.38;21.40;;;;;;;15.05;nan;98852.19;2065473;28;20614;-75
2022/07/15 02:57:34;;;;;;;24.02;21.92;;;;;;;15.07;nan;98847.25;2065669;28;20205;-74
2022/07/15 02:58:36;;;;;;;23.47;21.47;;;;;;;15.07;nan;98844.56;2065057;28;20228;-74
2022/07/15 02:59:37;;;;;;;23.57;21.37;;;;;;;15.09;nan;98847.69;2073617;28;20210;-74
2022/07/15 03:00:38;;;;;;;25.03;22.53;;;;;;;15.11;nan;98845.47;2073506;28;20451;-75
2022/07/15 03:01:39;;;;;;;25.10;22.53;;;;;;;15.10;nan;98846.56;2065279;28;20189;-75
2022/07/15 03:02:42;;;;;;;27.60;23.67;;;;;;;15.14;nan;98849.41;2073472;28;20435;-74
2022/07/15 03:03:44;;;;;;;29.17;23.87;;;;;;;15.14;nan;98849.41;2065629;28;20981;-75
2022/07/15 03:04:53;;;;;;;26.03;23.47;;;;;;;15.14;nan;98852.09;2066162;28;20475;-74
2022/07/15 03:05:54;;;;;;;25.97;23.27;;;;;;;15.12;nan;98859.72;2064661;28;20958;-74
2022/07/15 03:06:56;;;;;;;26.00;23.53;;;;;;;15.12;nan;98854.34;2073393;28;20505;-74
2022/07/15 03:07:57;;;;;;;26.37;23.53;;;;;;;15.13;nan;98856.69;2065375;28;20486;-74
2022/07/15 03:09:01;;;;;;;26.10;23.60;;;;;;;15.11;nan;98858.91;2065424;28;20444;-74
2022/07/15 03:10:04;;;;;;;25.42;22.77;;;;;;;15.10;nan;98857.31;2073571;28;20553;-74
2022/07/15 03:11:06;;;;;;;26.37;23.53;;;;;;;15.09;nan;98863.81;2073401;28;20223;-74
2022/07/15 03:12:08;;;;;;;26.90;23.85;;;;;;;15.10;nan;98851.16;2073456;28;21027;-74
2022/07/15 03:13:10;;;;;;;27.33;24.30;;;;;;;15.11;nan;98858.09;2073365;28;20192;-74
2022/07/15 03:14:11;;;;;;;27.57;24.67;;;;;;;15.12;nan;98865.88;2073573;28;20463;-75
2022/07/15 03:15:13;;;;;;;27.93;25.13;;;;;;;15.12;nan;98852.44;2073291;28;20450;-74
2022/07/15 03:16:14;;;;;;;27.67;24.27;;;;;;;15.12;nan;98865.88;2065323;28;20691;-74
2022/07/15 03:17:19;;;;;;;27.30;24.13;;;;;;;15.13;nan;98867.44;2065656;28;20448;-75
2022/07/15 03:18:21;;;;;;;28.50;25.43;;;;;;;15.15;nan;98867.88;2065256;28;20450;-74
2022/07/15 03:19:23;;;;;;;29.25;25.83;;;;;;;15.13;nan;98866.66;2073649;28;20831;-74
2022/07/15 03:20:24;;;;;;;33.63;25.93;;;;;;;15.17;nan;98862.97;2073264;28;20222;-74
2022/07/15 03:21:25;;;;;;;30.00;26.55;;;;;;;15.17;nan;98867.53;2072904;28;20559;-74
2022/07/15 03:22:29;;;;;;;29.30;25.97;;;;;;;15.16;nan;98872.13;2073652;28;20250;-74
2022/07/15 03:23:32;;;;;;;28.63;25.73;;;;;;;15.18;nan;98869.13;2075340;28;20196;-74
2022/07/15 03:24:34;;;;;;;31.92;26.80;;;;;;;15.20;nan;98864.19;2075007;28;20454;-74
2022/07/15 03:25:35;;;;;;;29.50;26.07;;;;;;;15.19;nan;98865.31;2075047;28;20234;-75
2022/07/15 03:26:42;;;;;;;34.28;27.48;;;;;;;15.18;nan;98871.81;2075092;28;20437;-74
2022/07/15 03:27:44;;;;;;;30.47;27.30;;;;;;;15.22;nan;98878.09;2075109;28;20192;-74
2022/07/15 03:28:48;;;;;;;36.37;27.43;;;;;;;15.18;nan;98877.97;2075238;28;20447;-74
2022/07/15 03:29:49;;;;;;;35.40;27.77;;;;;;;15.20;nan;98872.25;2074994;28;20466;-74
2022/07/15 03:30:51;;;;;;;30.07;26.73;;;;;;;15.17;nan;98872.91;2075836;28;20207;-74
2022/07/15 03:31:53;;;;;;;30.70;27.40;;;;;;;15.17;nan;98879.09;2074906;28;20965;-74
2022/07/15 03:32:58;;;;;;;35.28;27.65;;;;;;;15.20;nan;98883.00;2075569;28;20466;-74
2022/07/15 03:33:59;;;;;;;32.95;27.83;;;;;;;15.25;nan;98886.28;2074784;28;20200;-74
2022/07/15 03:35:02;;;;;;;31.48;28.10;;;;;;;15.22;nan;98881.56;2066900;28;20197;-75
2022/07/15 03:36:07;;;;;;;32.58;28.17;;;;;;;15.28;nan;98888.28;2066827;28;20195;-75
2022/07/15 03:37:11;;;;;;;33.03;29.42;;;;;;;15.29;nan;98881.03;2066946;28;20193;-74
2022/07/15 03:38:12;;;;;;;33.10;29.50;;;;;;;15.31;nan;98894.16;2067137;28;20288;-75
2022/07/15 03:39:14;;;;;;;33.77;29.00;;;;;;;15.31;nan;98884.19;2066752;28;20375;-74
2022/07/15 03:40:14;;;;;;;34.97;30.00;;;;;;;15.32;nan;98893.03;2066845;28;20197;-75
2022/07/15 03:41:16;;;;;;;34.07;30.50;;;;;;;15.30;nan;98892.56;2074872;28;20538;-74
2022/07/15 03:42:17;;;;;;;38.40;30.87;;;;;;;15.30;nan;98898.75;2074790;28;20266;-74
2022/07/15 03:43:23;;;;;;;36.78;32.58;;;;;;;15.32;nan;98904.56;2067000;28;20435;-74
2022/07/15 03:44:27;;;;;;;39.95;35.05;;;;;;;15.35;nan;98900.41;2067481;28;20224;-74
2022/07/15 03:45:29;;;;;;;38.72;33.17;;;;;;;15.34;nan;98902.31;2074848;28;20208;-75
2022/07/15 03:46:30;;;;;;;37.85;33.95;;;;;;;15.35;nan;98900.41;2075142;28;20200;-74
2022/07/15 03:47:34;;;;;;;40.35;35.30;;;;;;;15.37;nan;98906.25;2067127;28;20213;-74
2022/07/15 03:48:39;;;;;;;41.35;34.42;;;;;;;15.38;nan;98913.22;2075547;28;20204;-74
2022/07/15 03:49:43;;;;;;;37.97;33.93;;;;;;;15.36;nan;98907.38;2074798;28;20228;-74
2022/07/15 03:50:44;;;;;;;38.47;33.97;;;;;;;15.39;nan;98914.78;2067017;28;20572;-74
2022/07/15 03:51:46;;;;;;;39.00;34.83;;;;;;;15.41;nan;98915.25;2074698;28;20216;-74
2022/07/15 03:52:47;;;;;;;42.97;35.03;;;;;;;15.42;nan;98911.44;2074783;28;20196;-74
2022/07/15 03:53:49;;;;;;;39.83;35.57;;;;;;;15.43;nan;98913.78;2075023;28;20435;-74
2022/07/15 03:54:50;;;;;;;43.70;36.77;;;;;;;15.43;nan;98916.47;2074901;28;20224;-74
2022/07/15 03:55:51;;;;;;;43.80;35.23;;;;;;;15.45;nan;98918.81;2074800;28;20431;-74
2022/07/15 03:56:52;;;;;;;39.67;35.05;;;;;;;15.43;nan;98916.47;2075477;28;20250;-75
2022/07/15 03:57:57;;;;;;;38.78;34.80;;;;;;;15.44;nan;98915.34;2066634;28;20232;-74
2022/07/15 03:59:02;;;;;;;40.33;35.93;;;;;;;15.46;nan;98920.38;2066854;28;20744;-75
2022/07/15 04:00:06;;;;;;;39.33;35.27;;;;;;;15.48;nan;98915.50;2067366;28;20448;-75
2022/07/15 04:01:15;;;;;;;40.50;36.37;;;;;;;15.48;nan;98918.19;2075478;28;20399;-75
2022/07/15 04:02:16;;;;;;;39.20;34.57;;;;;;;15.50;nan;98921.31;2074765;28;21028;-74
2022/07/15 04:03:17;;;;;;;38.73;34.50;;;;;;;15.50;nan;98919.41;2074799;28;20199;-74
2022/07/15 04:04:20;;;;;;;38.77;34.67;;;;;;;15.50;nan;98910.56;2077529;28;20467;-75
2022/07/15 04:05:23;;;;;;;39.03;34.87;;;;;;;15.53;nan;98915.25;2075356;28;20203;-74
2022/07/15 04:06:25;;;;;;;41.03;34.73;;;;;;;15.55;nan;98915.75;2074424;28;20459;-74
2022/07/15 04:07:27;;;;;;;38.83;34.63;;;;;;;15.58;nan;98908.91;2066467;28;20459;-74
2022/07/15 04:08:29;;;;;;;40.23;35.10;;;;;;;15.59;nan;98913.16;2074695;28;20434;-75
2022/07/15 04:09:30;;;;;;;40.37;35.53;;;;;;;15.57;nan;98910.81;2075715;28;20952;-75
2022/07/15 04:10:31;;;;;;;38.03;34.23;;;;;;;15.57;nan;98910.81;2066537;28;20243;-74
2022/07/15 04:11:34;;;;;;;39.97;35.67;;;;;;;15.59;nan;98916.63;2074995;28;20813;-74
2022/07/15 04:12:35;;;;;;;38.97;34.78;;;;;;;15.59;nan;98913.94;2084184;28;20190;-74
2022/07/15 04:13:37;;;;;;;40.53;36.17;;;;;;;15.59;nan;98913.94;2074571;28;20279;-74
2022/07/15 04:14:39;;;;;;;39.33;35.30;;;;;;;15.58;nan;98917.75;2067089;28;20240;-74
2022/07/15 04:15:41;;;;;;;40.97;36.73;;;;;;;15.59;nan;98922.00;2066604;28;20440;-74
2022/07/15 04:16:42;;;;;;;42.67;35.40;;;;;;;15.62;nan;98918.69;2074632;28;20439;-74
2022/07/15 04:18:04;;;;;;;40.20;35.87;;;;;;;15.63;nan;98917.56;2074686;28;20216;-74
2022/07/15 04:19:06;;;;;;;44.87;35.70;;;;;;;15.65;nan;98920.72;2074967;28;20827;-74
2022/07/15 04:20:12;;;;;;;39.03;34.80;;;;;;;15.66;nan;98921.50;2075640;28;20530;-74
2022/07/15 04:21:14;;;;;;;44.73;36.50;;;;;;;15.64;nan;98916.47;2066718;28;20977;-75
2022/07/15 04:22:16;;;;;;;39.77;35.77;;;;;;;15.63;nan;98920.25;2067924;28;20864;-74
2022/07/15 04:23:22;;;;;;;40.40;36.30;;;;;;;15.62;nan;98917.91;2075425;28;20208;-74
2022/07/15 04:24:24;;;;;;;43.33;37.13;;;;;;;15.61;nan;98925.19;2074443;28;20447;-75
2022/07/15 04:25:26;;;;;;;41.53;36.73;;;;;;;15.63;nan;98931.00;2067822;28;20679;-74
2022/07/15 04:26:29;;;;;;;41.10;36.73;;;;;;;15.65;nan;98934.16;2066625;28;20531;-74
2022/07/15 04:27:30;;;;;;;40.90;36.57;;;;;;;15.68;nan;98938.88;2075277;28;20454;-75
2022/07/15 04:28:33;;;;;;;40.30;35.93;;;;;;;15.68;nan;98941.56;2082711;28;20422;-75
2022/07/15 04:29:35;;;;;;;40.30;35.90;;;;;;;15.70;nan;98950.06;2074613;28;20512;-74
2022/07/15 04:30:38;;;;;;;39.57;35.53;;;;;;;15.72;nan;98953.22;2067069;28;20444;-75
2022/07/15 04:31:39;;;;;;;40.07;35.90;;;;;;;15.74;nan;98947.53;2074531;28;20439;-75
2022/07/15 04:32:51;;;;;;;48.13;36.37;;;;;;;15.75;nan;98957.16;2083273;28;20446;-75
2022/07/15 04:33:54;;;;;;;41.00;36.67;;;;;;;15.83;nan;98958.97;2074272;28;20546;-74
2022/07/15 04:34:57;;;;;;;41.43;37.03;;;;;;;15.81;nan;98958.50;2065669;28;20468;-75
2022/07/15 04:35:58;;;;;;;41.67;36.70;;;;;;;15.79;nan;98950.78;2066244;28;20443;-74
2022/07/15 04:37:00;;;;;;;40.70;36.43;;;;;;;15.74;nan;98960.97;2066333;28;20436;-74
2022/07/15 04:38:04;;;;;;;40.60;36.50;;;;;;;15.72;nan;98969.34;2075126;28;20591;-75
2022/07/15 04:39:08;;;;;;;42.40;38.00;;;;;;;15.77;nan;98982.59;2074361;28;20435;-74
2022/07/15 04:40:11;;;;;;;40.93;36.77;;;;;;;15.77;nan;98992.59;2074511;28;20983;-75
2022/07/15 04:41:16;;;;;;;40.07;35.87;;;;;;;15.76;nan;98989.13;2074769;28;20440;-74
2022/07/15 04:42:17;;;;;;;39.87;35.63;;;;;;;15.75;nan;98984.84;2074442;28;20475;-74
2022/07/15 04:43:19;;;;;;;39.87;35.77;;;;;;;15.76;nan;98985.63;2075316;28;20964;-75
2022/07/15 04:44:20;;;;;;;38.63;34.73;;;;;;;15.71;nan;98981.25;2066427;28;20201;-74
2022/07/15 04:45:22;;;;;;;39.97;35.87;;;;;;;15.75;nan;98990.22;2074474;28;20482;-74
2022/07/15 04:46:29;;;;;;;40.07;36.00;;;;;;;15.76;nan;98991.00;2074791;28;20204;-74
2022/07/15 04:47:45;;;;;;;40.70;36.47;;;;;;;15.74;nan;98980.59;2069081;28;20451;-74
2022/07/15 04:51:31;;;;;;;40.33;36.03;;;;;;;15.74;nan;98994.03;2068990;28;20455;-74
2022/07/15 04:52:32;;;;;;;39.90;35.60;;;;;;;15.73;nan;98989.78;2066281;28;20816;-73
2022/07/15 04:53:37;;;;;;;42.77;36.97;;;;;;;15.79;nan;98996.50;2074640;28;20510;-74
2022/07/15 04:54:39;;;;;;;40.17;36.37;;;;;;;15.78;nan;98984.19;2074379;28;20290;-74
2022/07/15 04:55:42;;;;;;;41.83;37.53;;;;;;;15.72;nan;98987.41;2074401;28;20439;-74
2022/07/15 04:56:45;;;;;;;44.30;36.30;;;;;;;15.77;nan;98993.38;2074603;28;20443;-74
2022/07/15 04:57:46;;;;;;;41.70;37.23;;;;;;;15.76;nan;98991.81;2066328;28;20499;-74
2022/07/15 04:58:48;;;;;;;42.93;38.57;;;;;;;15.76;nan;98988.31;2074052;28;20514;-74
2022/07/15 04:59:48;;;;;;;41.80;37.45;;;;;;;15.76;nan;98988.31;2074212;28;20564;-74
2022/07/15 05:00:52;;;;;;;42.47;38.13;;;;;;;15.80;nan;99002.69;2074198;28;20200;-74